createdAt,value
2022-11-20T00:03:49.797Z,1.91
2022-11-20T00:08:52.144Z,1.89
2022-11-20T00:13:56.397Z,1.90
2022-11-20T00:18:58.276Z,1.86
2022-11-20T00:24:00.145Z,1.62
2022-11-20T00:29:02.663Z,1.54
2022-11-20T00:34:04.278Z,1.77
2022-11-20T00:39:05.885Z,1.96
2022-11-20T00:44:07.440Z,1.95
2022-11-20T00:49:09.039Z,1.97
2022-11-20T00:54:11.081Z,2.08
2022-11-20T00:59:12.795Z,1.96
2022-11-20T01:04:14.390Z,1.98
2022-11-20T01:09:16.041Z,1.91
2022-11-20T01:14:19.353Z,2.08
2022-11-20T01:19:23.520Z,1.98
2022-11-20T01:24:26.044Z,2.02
2022-11-20T01:29:27.715Z,2.05
2022-11-20T01:34:29.378Z,2.15
2022-11-20T01:39:31.048Z,2.26
2022-11-20T01:44:56.308Z,2.15
2022-11-20T01:50:06.686Z,2.17
2022-11-20T01:55:13.946Z,2.04
2022-11-20T02:00:18.709Z,2.06
2022-11-20T02:05:38.413Z,2.22
2022-11-20T02:10:40.562Z,2.24
2022-11-20T02:15:42.274Z,2.29
2022-11-20T02:20:46.298Z,2.32
2022-11-20T02:25:48.843Z,2.33
2022-11-20T02:30:50.674Z,2.34
2022-11-20T02:35:52.244Z,2.38
2022-11-20T02:40:55.675Z,2.37
2022-11-20T02:45:57.976Z,2.36
2022-11-20T02:50:59.575Z,2.40
2022-11-20T02:56:01.165Z,2.46
2022-11-20T03:01:02.790Z,2.45
2022-11-20T03:06:04.952Z,2.33
2022-11-20T03:11:08.159Z,2.25
2022-11-20T03:16:15.817Z,2.08
2022-11-20T03:21:17.455Z,2.22
2022-11-20T03:26:22.241Z,2.18
2022-11-20T03:31:44.407Z,2.10
2022-11-20T03:36:46.202Z,2.03
2022-11-20T03:41:47.781Z,2.17
2022-11-20T03:46:49.751Z,2.28
2022-11-20T03:51:51.436Z,2.24
2022-11-20T03:56:53.039Z,2.05
2022-11-20T04:01:54.659Z,2.14
2022-11-20T04:06:56.640Z,2.11
2022-11-20T04:11:58.409Z,2.10
2022-11-20T04:17:00.015Z,2.04
2022-11-20T04:22:01.746Z,1.85
2022-11-20T04:27:03.369Z,1.89
2022-11-20T04:32:05.100Z,2.02
2022-11-20T04:37:06.675Z,1.89
2022-11-20T04:42:28.965Z,1.91
2022-11-20T04:47:30.549Z,1.62
2022-11-20T04:52:32.303Z,1.73
2022-11-20T04:57:33.884Z,1.66
2022-11-20T05:02:35.481Z,1.75
2022-11-20T05:07:37.077Z,1.65
2022-11-20T05:12:38.702Z,1.82
2022-11-20T05:17:40.557Z,1.78
2022-11-20T05:22:42.132Z,1.73
2022-11-20T05:27:43.800Z,1.81
2022-11-20T05:32:45.393Z,1.73
2022-11-20T05:37:46.962Z,1.65
2022-11-20T05:42:48.736Z,1.31
2022-11-20T05:47:50.312Z,1.42
2022-11-20T05:52:51.913Z,1.45
2022-11-20T05:57:55.735Z,1.25
2022-11-20T06:02:57.704Z,1.14
2022-11-20T06:08:01.742Z,1.18
2022-11-20T06:13:03.377Z,1.17
2022-11-20T06:18:05.150Z,1.29
2022-11-20T06:23:06.756Z,1.22
2022-11-20T06:28:08.728Z,1.27
2022-11-20T06:33:10.353Z,1.24
2022-11-20T06:38:11.957Z,1.29
2022-11-20T06:43:13.592Z,1.19
2022-11-20T06:48:15.294Z,1.25
2022-11-20T06:53:17.104Z,1.19
2022-11-20T06:58:19.204Z,1.33
2022-11-20T07:03:20.972Z,1.31
2022-11-20T07:08:23.084Z,1.35
2022-11-20T07:13:24.685Z,1.45
2022-11-20T07:18:26.297Z,1.57
2022-11-20T07:23:27.930Z,1.79
2022-11-20T07:28:29.551Z,1.88
2022-11-20T07:33:31.504Z,1.97
2022-11-20T07:38:33.290Z,2.00
2022-11-20T07:43:39.921Z,1.93
2022-11-20T07:48:42.926Z,1.74
2022-11-20T07:53:44.507Z,1.86
2022-11-20T07:58:46.093Z,1.81
2022-11-20T08:03:47.840Z,1.80
2022-11-20T08:08:49.452Z,1.85
2022-11-20T08:14:09.725Z,1.65
2022-11-20T08:19:12.474Z,1.79
2022-11-20T08:24:14.195Z,1.86
2022-11-20T08:29:15.768Z,1.95
2022-11-20T08:34:19.157Z,2.00
2022-11-20T08:39:21.444Z,2.15
2022-11-20T08:44:23.539Z,2.05
2022-11-20T08:49:25.662Z,2.24
2022-11-20T08:54:27.249Z,2.28
2022-11-20T08:59:58.633Z,2.46
2022-11-20T09:04:50.999Z,2.45
2022-11-20T09:10:09.991Z,2.61
2022-11-20T09:15:14.187Z,2.75
2022-11-20T09:20:17.204Z,2.88
2022-11-20T09:25:19.355Z,2.95
2022-11-20T09:30:21.217Z,2.95
2022-11-20T09:35:22.951Z,2.81
2022-11-20T09:40:27.926Z,2.98
2022-11-20T09:45:43.910Z,3.11
2022-11-20T09:51:09.738Z,3.13
2022-11-20T09:56:12.379Z,3.13
2022-11-20T10:01:17.670Z,3.13
2022-11-20T10:06:25.439Z,3.27
2022-11-20T10:12:00.710Z,3.35
2022-11-20T10:17:50.434Z,3.39
2022-11-20T10:23:00.732Z,3.53
2022-11-20T10:28:08.097Z,3.54
2022-11-20T10:33:18.734Z,3.66
2022-11-20T10:38:26.546Z,3.80
2022-11-20T10:43:34.762Z,3.84
2022-11-20T10:48:39.085Z,3.97
2022-11-20T10:53:43.590Z,4.00
2022-11-20T10:59:03.392Z,4.08
2022-11-20T11:04:30.969Z,4.16
2022-11-20T11:09:39.689Z,4.29
2022-11-20T11:14:47.527Z,4.37
2022-11-20T11:20:18.004Z,4.52
2022-11-20T11:25:40.985Z,4.65
2022-11-20T11:30:45.002Z,4.66
2022-11-20T11:35:51.562Z,4.71
2022-11-20T11:40:56.234Z,4.80
2022-11-20T11:45:58.500Z,4.92
2022-11-20T11:51:00.099Z,5.06
2022-11-20T11:56:10.245Z,5.13
2022-11-20T12:01:39.924Z,5.26
2022-11-20T12:06:43.949Z,5.27
2022-11-20T12:11:55.918Z,5.39
2022-11-20T12:16:58.643Z,5.39
2022-11-20T12:22:15.413Z,5.54
2022-11-20T12:27:35.017Z,5.51
2022-11-20T12:32:54.625Z,5.51
2022-11-20T12:38:20.723Z,5.61
2022-11-20T12:43:44.509Z,5.61
2022-11-20T12:48:46.622Z,5.66
2022-11-20T12:54:07.288Z,5.67
2022-11-20T12:59:21.402Z,5.66
2022-11-20T13:05:12.589Z,5.75
2022-11-20T13:10:21.862Z,5.82
2022-11-20T13:15:46.668Z,5.82
2022-11-20T13:20:50.717Z,5.76
2022-11-20T13:26:03.440Z,5.91
2022-11-20T13:31:06.084Z,5.99
2022-11-20T13:36:23.285Z,6.08
2022-11-20T13:41:32.474Z,6.02
2022-11-20T13:46:40.252Z,6.04
2022-11-20T13:51:45.898Z,6.06
2022-11-20T13:57:02.667Z,6.09
2022-11-20T14:02:10.774Z,6.09
2022-11-20T14:07:13.892Z,6.06
2022-11-20T14:12:18.572Z,6.11
2022-11-20T14:17:24.571Z,6.16
2022-11-20T14:22:27.953Z,6.15
2022-11-20T14:27:29.700Z,6.11
2022-11-20T14:32:32.506Z,6.05
2022-11-20T14:37:37.541Z,6.06
2022-11-20T14:42:44.932Z,6.09
2022-11-20T14:47:47.387Z,6.08
2022-11-20T14:52:55.841Z,6.09
2022-11-20T14:58:00.779Z,6.07
2022-11-20T15:03:02.397Z,6.01
2022-11-20T15:08:11.511Z,5.85
2022-11-20T15:13:17.152Z,5.73
2022-11-20T15:18:25.384Z,5.63
2022-11-20T15:23:28.335Z,5.60
2022-11-20T15:28:36.121Z,5.36
2022-11-20T15:33:37.733Z,5.26
2022-11-20T15:38:39.560Z,5.03
2022-11-20T15:43:41.299Z,4.92
2022-11-20T15:48:52.017Z,4.89
2022-11-20T15:53:55.186Z,4.87
2022-11-20T15:58:56.831Z,4.81
2022-11-20T16:03:58.429Z,4.70
2022-11-20T16:09:00.208Z,4.59
2022-11-20T16:14:21.275Z,4.51
2022-11-20T16:19:23.245Z,4.43
2022-11-20T16:24:25.084Z,4.24
2022-11-20T16:29:27.062Z,3.91
2022-11-20T16:34:29.073Z,3.91
2022-11-20T16:39:30.985Z,3.85
2022-11-20T16:44:32.597Z,3.87
2022-11-20T16:49:34.188Z,3.89
2022-11-20T16:54:35.823Z,3.86
2022-11-20T16:59:37.986Z,3.86
2022-11-20T17:04:40.170Z,3.90
2022-11-20T17:09:41.807Z,3.76
2022-11-20T17:14:43.592Z,3.77
2022-11-20T17:19:45.213Z,3.77
2022-11-20T17:24:46.825Z,3.76
2022-11-20T17:29:48.430Z,3.75
2022-11-20T17:34:50.010Z,3.62
2022-11-20T17:39:51.602Z,3.60
2022-11-20T17:44:53.480Z,3.63
2022-11-20T17:49:55.507Z,3.43
2022-11-20T17:54:57.867Z,3.49
2022-11-20T17:59:59.442Z,3.60
2022-11-20T18:05:01.055Z,3.66
2022-11-20T18:10:02.666Z,3.67
2022-11-20T18:15:04.623Z,3.70
2022-11-20T18:20:28.018Z,3.76
2022-11-20T18:25:30.385Z,3.68
2022-11-20T18:30:31.969Z,3.76
2022-11-20T18:35:34.217Z,3.83
2022-11-20T18:40:36.784Z,3.80
2022-11-20T18:45:38.380Z,3.79
2022-11-20T18:50:40.140Z,3.73
2022-11-20T18:55:42.505Z,3.72
2022-11-20T19:00:44.636Z,3.65
2022-11-20T19:05:46.275Z,3.64
2022-11-20T19:10:48.076Z,3.63
2022-11-20T19:15:49.708Z,3.42
2022-11-20T19:20:51.280Z,3.28
2022-11-20T19:25:52.836Z,3.33
2022-11-20T19:30:54.417Z,3.32
2022-11-20T19:35:56.065Z,3.23
2022-11-20T19:40:57.645Z,3.21
2022-11-20T19:45:59.435Z,3.29
2022-11-20T19:51:25.246Z,3.29
2022-11-20T19:56:28.907Z,3.35
2022-11-20T20:01:31.811Z,3.35
2022-11-20T20:06:35.963Z,3.38
2022-11-20T20:11:38.373Z,3.36
2022-11-20T20:16:40.435Z,3.27
2022-11-20T20:21:42.917Z,3.32
2022-11-20T20:26:44.517Z,3.37
2022-11-20T20:31:46.348Z,3.37
2022-11-20T20:36:47.907Z,3.35
2022-11-20T20:41:50.143Z,3.33
2022-11-20T20:46:53.017Z,3.36
2022-11-20T20:51:54.701Z,3.36
2022-11-20T20:56:56.329Z,3.32
2022-11-20T21:01:57.946Z,3.40
2022-11-20T21:06:59.598Z,3.42
2022-11-20T21:12:01.233Z,3.39
2022-11-20T21:17:02.882Z,3.45
2022-11-20T21:22:04.714Z,3.45
2022-11-20T21:27:07.042Z,3.48
2022-11-20T21:32:08.680Z,3.52
2022-11-20T21:37:10.285Z,3.55
2022-11-20T21:42:12.004Z,3.52
2022-11-20T21:47:13.704Z,3.51
2022-11-20T21:52:15.290Z,3.55
2022-11-20T21:57:16.876Z,3.58
2022-11-20T22:02:18.483Z,3.55
2022-11-20T22:07:20.156Z,3.56
2022-11-20T22:12:22.625Z,3.57
2022-11-20T22:17:44.248Z,3.54
2022-11-20T22:22:45.840Z,3.53
2022-11-20T22:27:47.613Z,3.48
2022-11-20T22:32:50.027Z,3.51
2022-11-20T22:37:51.620Z,3.48
2022-11-20T22:42:53.189Z,3.50
2022-11-20T22:47:54.768Z,3.55
2022-11-20T22:52:56.338Z,3.60
2022-11-20T22:57:57.912Z,3.60
2022-11-20T23:02:59.486Z,3.60
2022-11-20T23:08:01.086Z,3.56
2022-11-20T23:13:02.715Z,3.54
2022-11-20T23:18:04.376Z,3.53
2022-11-20T23:23:05.971Z,3.48
2022-11-20T23:28:07.600Z,3.45
2022-11-20T23:33:09.184Z,3.49
2022-11-20T23:38:10.934Z,3.50
2022-11-20T23:43:15.181Z,3.47
2022-11-20T23:48:17.756Z,3.37
2022-11-20T23:53:19.418Z,3.25
2022-11-20T23:58:22.492Z,3.20
